createdAt,value
2022-09-25T00:01:27.787Z,7.90
2022-09-25T00:03:56.386Z,8.00
2022-09-25T00:06:28.242Z,7.22
2022-09-25T00:08:57.632Z,8.30
2022-09-25T00:11:27.757Z,6.70
2022-09-25T00:13:57.227Z,7.82
2022-09-25T00:16:27.991Z,7.63
2022-09-25T00:19:11.090Z,7.82
2022-09-25T00:21:41.098Z,7.15
2022-09-25T00:24:11.327Z,7.63
2022-09-25T00:26:42.280Z,6.88
2022-09-25T00:29:15.145Z,7.28
2022-09-25T00:31:44.219Z,6.88
2022-09-25T00:34:13.119Z,8.77
2022-09-25T00:36:43.154Z,7.88
2022-09-25T00:39:11.996Z,8.35
2022-09-25T00:41:40.750Z,7.68
2022-09-25T00:45:01.191Z,8.38
2022-09-25T00:47:37.397Z,8.40
2022-09-25T00:50:13.871Z,8.15
2022-09-25T00:52:45.010Z,7.95
2022-09-25T00:55:15.851Z,7.43
2022-09-25T00:57:50.098Z,8.48
2022-09-25T01:00:19.579Z,7.43
2022-09-25T01:02:53.445Z,7.75
2022-09-25T01:05:24.950Z,8.18
2022-09-25T01:07:57.232Z,7.63
2022-09-25T01:10:26.171Z,7.45
2022-09-25T01:12:55.605Z,8.18
2022-09-25T01:15:33.701Z,7.70
2022-09-25T01:18:12.139Z,8.02
2022-09-25T01:20:56.603Z,10.05
2022-09-25T01:23:38.613Z,8.02
2022-09-25T01:26:22.487Z,7.40
2022-09-25T01:29:07.893Z,7.95
2022-09-25T01:31:42.948Z,7.47
2022-09-25T01:34:19.203Z,7.55
2022-09-25T01:36:52.568Z,7.53
2022-09-25T01:39:23.938Z,7.38
2022-09-25T01:41:56.481Z,9.02
2022-09-25T01:44:31.372Z,7.05
2022-09-25T01:47:08.725Z,7.38
2022-09-25T01:49:41.470Z,7.72
2022-09-25T01:52:15.621Z,7.68
2022-09-25T01:54:47.498Z,7.03
2022-09-25T01:57:20.951Z,7.38
2022-09-25T01:59:57.855Z,6.93
2022-09-25T02:02:34.087Z,8.75
2022-09-25T02:05:08.848Z,7.50
2022-09-25T02:07:42.180Z,7.57
2022-09-25T02:10:17.985Z,7.05
2022-09-25T02:12:50.644Z,7.57
2022-09-25T02:15:25.990Z,7.20
2022-09-25T02:18:17.242Z,8.88
2022-09-25T02:20:50.552Z,8.55
2022-09-25T02:23:23.823Z,8.05
2022-09-25T02:25:59.851Z,8.27
2022-09-25T02:28:29.490Z,7.60
2022-09-25T02:31:02.266Z,7.63
2022-09-25T02:33:31.702Z,8.25
2022-09-25T02:36:02.024Z,7.30
2022-09-25T02:38:31.616Z,8.07
2022-09-25T02:41:08.175Z,7.07
2022-09-25T02:43:45.290Z,8.57
2022-09-25T02:46:22.799Z,8.70
2022-09-25T02:48:55.543Z,8.65
2022-09-25T02:51:31.226Z,8.13
2022-09-25T02:54:09.542Z,8.43
2022-09-25T02:56:44.855Z,7.40
2022-09-25T02:59:19.691Z,9.32
2022-09-25T03:01:50.645Z,8.23
2022-09-25T03:04:20.388Z,9.00
2022-09-25T03:06:49.327Z,8.00
2022-09-25T03:09:19.829Z,8.23
2022-09-25T03:11:48.765Z,7.15
2022-09-25T03:14:17.393Z,9.93
2022-09-25T03:16:51.673Z,10.27
2022-09-25T03:19:21.161Z,9.77
2022-09-25T03:21:51.311Z,10.40
2022-09-25T03:24:19.989Z,9.77
2022-09-25T03:26:49.155Z,9.30
2022-09-25T03:29:18.246Z,9.70
2022-09-25T03:31:49.729Z,9.75
2022-09-25T03:34:21.253Z,9.02
2022-09-25T03:36:49.823Z,12.10
2022-09-25T03:39:18.949Z,10.48
2022-09-25T03:41:48.012Z,10.15
2022-09-25T03:44:16.856Z,9.48
2022-09-25T03:46:45.575Z,9.15
2022-09-25T03:49:15.389Z,9.00
2022-09-25T03:51:44.148Z,9.70
2022-09-25T03:54:12.745Z,9.30
2022-09-25T03:56:41.829Z,9.07
2022-09-25T03:59:10.533Z,9.68
2022-09-25T04:01:42.729Z,8.85
2022-09-25T04:04:11.434Z,7.53
2022-09-25T04:06:41.507Z,8.90
2022-09-25T04:09:09.998Z,7.78
2022-09-25T04:11:38.726Z,8.65
2022-09-25T04:14:07.513Z,8.57
2022-09-25T04:16:36.472Z,8.95
2022-09-25T04:19:05.224Z,8.35
2022-09-25T04:21:34.404Z,8.30
2022-09-25T04:24:21.565Z,7.05
2022-09-25T04:26:53.890Z,8.02
2022-09-25T04:29:24.731Z,8.63
2022-09-25T04:32:06.934Z,8.10
2022-09-25T04:34:35.517Z,7.43
2022-09-25T04:37:04.222Z,6.55
2022-09-25T04:39:34.183Z,7.20
2022-09-25T04:42:02.926Z,7.13
2022-09-25T04:44:31.420Z,7.60
2022-09-25T04:47:00.103Z,5.85
2022-09-25T04:49:29.065Z,7.00
2022-09-25T04:51:57.860Z,8.40
2022-09-25T04:54:27.142Z,6.43
2022-09-25T04:56:57.858Z,7.90
2022-09-25T04:59:29.390Z,6.22
2022-09-25T05:01:58.443Z,7.43
2022-09-25T05:04:27.410Z,7.65
2022-09-25T05:06:56.419Z,7.97
2022-09-25T05:09:25.192Z,7.63
2022-09-25T05:11:53.922Z,6.03
2022-09-25T05:14:23.947Z,7.55
2022-09-25T05:16:52.758Z,6.20
2022-09-25T05:19:21.492Z,7.78
2022-09-25T05:21:50.033Z,7.95
2022-09-25T05:24:18.809Z,9.02
2022-09-25T05:26:48.356Z,9.02
2022-09-25T05:29:16.910Z,10.60
2022-09-25T05:31:50.031Z,9.48
2022-09-25T05:34:18.720Z,9.55
2022-09-25T05:36:47.027Z,10.25
2022-09-25T05:39:15.594Z,9.88
2022-09-25T05:41:44.131Z,10.60
2022-09-25T05:44:12.942Z,12.02
2022-09-25T05:46:42.543Z,12.00
2022-09-25T05:49:12.276Z,12.50
2022-09-25T05:51:40.740Z,11.80
2022-09-25T05:54:09.678Z,13.10
2022-09-25T05:56:38.948Z,10.95
2022-09-25T05:59:07.364Z,11.48
2022-09-25T06:01:35.848Z,11.82
2022-09-25T06:04:05.057Z,10.82
2022-09-25T06:06:36.251Z,8.13
2022-09-25T06:09:04.920Z,10.07
2022-09-25T06:11:33.528Z,10.50
2022-09-25T06:14:02.181Z,11.52
2022-09-25T06:16:31.353Z,10.68
2022-09-25T06:18:59.934Z,13.45
2022-09-25T06:21:28.761Z,11.57
2022-09-25T06:23:59.048Z,12.60
2022-09-25T06:26:27.625Z,11.75
2022-09-25T06:29:00.958Z,13.73
2022-09-25T06:31:31.851Z,13.98
2022-09-25T06:34:00.247Z,13.18
2022-09-25T06:36:29.240Z,13.45
2022-09-25T06:38:59.826Z,13.63
2022-09-25T06:41:28.339Z,13.75
2022-09-25T06:43:58.061Z,11.07
2022-09-25T06:46:26.913Z,13.90
2022-09-25T06:48:56.501Z,13.32
2022-09-25T06:51:32.541Z,14.90
2022-09-25T06:54:03.052Z,13.30
2022-09-25T06:56:31.763Z,13.75
2022-09-25T06:59:00.784Z,12.88
2022-09-25T07:01:29.244Z,12.25
2022-09-25T07:03:56.894Z,13.68
2022-09-25T07:06:27.978Z,13.45
2022-09-25T07:08:57.314Z,14.10
2022-09-25T07:11:43.272Z,13.88
2022-09-25T07:14:12.638Z,15.85
2022-09-25T07:16:41.407Z,14.27
2022-09-25T07:19:11.295Z,17.23
2022-09-25T07:21:39.661Z,16.08
2022-09-25T07:24:08.592Z,16.55
2022-09-25T07:26:42.939Z,14.60
2022-09-25T07:29:12.826Z,15.68
2022-09-25T07:31:41.370Z,15.05
2022-09-25T07:34:10.538Z,15.70
2022-09-25T07:36:40.181Z,16.75
2022-09-25T07:39:09.083Z,16.33
2022-09-25T07:41:39.878Z,15.02
2022-09-25T07:44:27.811Z,15.50
2022-09-25T07:46:58.768Z,14.15
2022-09-25T07:49:29.696Z,13.15
2022-09-25T07:52:00.084Z,14.77
2022-09-25T07:54:31.473Z,14.48
2022-09-25T07:57:02.357Z,14.70
2022-09-25T07:59:34.932Z,13.32
2022-09-25T08:02:05.326Z,13.43
2022-09-25T08:04:34.614Z,12.70
2022-09-25T08:07:04.174Z,13.10
2022-09-25T08:09:32.584Z,13.88
2022-09-25T08:12:02.634Z,12.98
2022-09-25T08:14:31.757Z,13.18
2022-09-25T08:17:00.575Z,12.73
2022-09-25T08:19:29.007Z,13.27
2022-09-25T08:21:57.293Z,11.85
2022-09-25T08:24:26.025Z,13.13
2022-09-25T08:26:54.343Z,12.27
2022-09-25T08:29:24.823Z,14.73
2022-09-25T08:31:53.947Z,13.43
2022-09-25T08:34:40.193Z,10.98
2022-09-25T08:37:09.803Z,12.07
2022-09-25T08:39:38.689Z,11.55
2022-09-25T08:42:17.411Z,12.38
2022-09-25T08:45:21.117Z,11.13
2022-09-25T08:48:10.409Z,12.25
2022-09-25T08:50:39.667Z,11.13
2022-09-25T08:53:16.377Z,12.38
2022-09-25T08:56:02.376Z,11.05
2022-09-25T08:58:33.299Z,12.85
2022-09-25T09:01:07.578Z,11.10
2022-09-25T09:03:45.485Z,11.15
2022-09-25T09:06:18.482Z,10.75
2022-09-25T09:08:53.438Z,12.18
2022-09-25T09:11:26.042Z,10.05
2022-09-25T09:13:57.950Z,12.43
2022-09-25T09:16:36.021Z,10.50
2022-09-25T09:19:06.429Z,11.27
2022-09-25T09:21:37.431Z,12.73
2022-09-25T09:24:16.302Z,12.27
2022-09-25T09:27:05.838Z,11.88
2022-09-25T09:29:53.262Z,10.13
2022-09-25T09:32:35.785Z,13.18
2022-09-25T09:35:13.443Z,13.90
2022-09-25T09:37:55.029Z,11.63
2022-09-25T09:40:34.039Z,10.05
2022-09-25T09:43:13.075Z,13.20
2022-09-25T09:45:47.933Z,12.23
2022-09-25T09:48:25.197Z,11.75
2022-09-25T09:50:58.078Z,11.18
2022-09-25T09:53:34.188Z,13.35
2022-09-25T09:56:09.272Z,9.70
2022-09-25T09:58:46.196Z,9.57
2022-09-25T10:01:37.011Z,9.55
2022-09-25T10:04:12.214Z,9.20
2022-09-25T10:06:43.541Z,10.73
2022-09-25T10:09:16.870Z,10.90
2022-09-25T10:11:46.908Z,10.32
2022-09-25T10:14:21.437Z,10.55
2022-09-25T10:16:51.690Z,10.70
2022-09-25T10:19:25.241Z,10.95
2022-09-25T10:21:56.984Z,11.07
2022-09-25T10:24:51.945Z,12.43
2022-09-25T10:27:29.343Z,10.65
2022-09-25T10:30:22.081Z,8.98
2022-09-25T10:33:01.217Z,9.10
2022-09-25T10:35:42.593Z,10.48
2022-09-25T10:38:29.627Z,12.75
2022-09-25T10:41:03.076Z,8.77
2022-09-25T10:43:31.873Z,11.38
2022-09-25T10:46:14.228Z,10.68
2022-09-25T10:49:00.830Z,8.90
2022-09-25T10:51:32.502Z,11.50
2022-09-25T10:54:14.628Z,9.63
2022-09-25T10:56:44.190Z,9.02
2022-09-25T10:59:20.254Z,10.13
2022-09-25T11:01:52.023Z,12.70
2022-09-25T11:04:24.892Z,12.02
2022-09-25T11:06:58.259Z,10.32
2022-09-25T11:09:28.523Z,11.18
2022-09-25T11:12:15.695Z,11.38
2022-09-25T11:14:55.421Z,11.75
2022-09-25T11:17:33.687Z,12.75
2022-09-25T11:20:22.808Z,10.88
2022-09-25T11:22:58.666Z,11.73
2022-09-25T11:25:35.571Z,11.13
2022-09-25T11:28:11.092Z,12.15
2022-09-25T11:30:52.805Z,12.20
2022-09-25T11:33:33.872Z,8.88
2022-09-25T11:36:06.829Z,11.77
2022-09-25T11:39:02.167Z,10.95
2022-09-25T11:41:34.931Z,11.20
2022-09-25T11:44:16.534Z,10.18
2022-09-25T11:46:55.237Z,10.68
2022-09-25T11:49:25.284Z,11.65
2022-09-25T11:52:23.098Z,11.75
2022-09-25T11:55:17.572Z,12.77
2022-09-25T11:57:54.775Z,9.90
2022-09-25T12:00:28.888Z,10.27
2022-09-25T12:03:13.413Z,8.63
2022-09-25T12:05:58.230Z,10.00
2022-09-25T12:08:38.610Z,11.32
2022-09-25T12:11:16.956Z,10.00
2022-09-25T12:14:05.276Z,12.43
2022-09-25T12:16:40.994Z,12.43
2022-09-25T12:19:19.300Z,9.00
2022-09-25T12:21:54.672Z,11.18
2022-09-25T12:24:36.799Z,11.13
2022-09-25T12:27:16.100Z,10.55
2022-09-25T12:30:07.105Z,12.13
2022-09-25T12:32:56.650Z,12.57
2022-09-25T12:35:37.254Z,10.15
2022-09-25T12:38:13.534Z,11.95
2022-09-25T12:40:46.960Z,10.82
2022-09-25T12:43:25.364Z,9.40
2022-09-25T12:46:00.579Z,12.48
2022-09-25T12:48:37.602Z,11.20
2022-09-25T12:51:12.631Z,10.93
2022-09-25T12:53:46.604Z,10.65
2022-09-25T12:56:18.489Z,10.57
2022-09-25T12:59:00.775Z,11.30
2022-09-25T13:01:37.070Z,10.30
2022-09-25T13:04:19.975Z,10.82
2022-09-25T13:06:53.798Z,10.05
2022-09-25T13:09:31.683Z,11.45
2022-09-25T13:12:04.131Z,8.55
2022-09-25T13:14:39.958Z,8.70
2022-09-25T13:17:12.273Z,10.30
2022-09-25T13:19:41.053Z,8.75
2022-09-25T13:22:13.625Z,9.75
2022-09-25T13:24:47.279Z,9.98
2022-09-25T13:27:22.575Z,9.32
2022-09-25T13:29:58.602Z,8.10
2022-09-25T13:32:32.030Z,8.25
2022-09-25T13:35:03.931Z,9.75
2022-09-25T13:37:36.720Z,9.15
2022-09-25T13:40:39.801Z,8.00
2022-09-25T13:43:25.033Z,8.50
2022-09-25T13:46:25.403Z,8.45
2022-09-25T13:48:55.668Z,8.88
2022-09-25T13:51:36.933Z,7.90
2022-09-25T13:54:25.480Z,8.15
2022-09-25T13:56:56.405Z,7.78
2022-09-25T13:59:37.569Z,6.93
2022-09-25T14:02:42.114Z,8.70
2022-09-25T14:05:18.070Z,7.65
2022-09-25T14:07:49.484Z,6.85
2022-09-25T14:10:19.637Z,8.10
2022-09-25T14:12:49.548Z,7.50
2022-09-25T14:15:33.895Z,6.85
2022-09-25T14:18:08.426Z,8.00
2022-09-25T14:20:40.383Z,6.65
2022-09-25T14:23:17.568Z,7.80
2022-09-25T14:25:49.501Z,7.03
2022-09-25T14:28:21.673Z,6.80
2022-09-25T14:30:54.800Z,6.63
2022-09-25T14:33:38.736Z,5.97
2022-09-25T14:36:17.771Z,7.10
2022-09-25T14:39:00.601Z,6.88
2022-09-25T14:41:46.909Z,6.93
2022-09-25T14:44:35.303Z,7.40
2022-09-25T14:47:06.037Z,7.35
2022-09-25T14:49:45.613Z,6.10
2022-09-25T14:52:18.117Z,6.50
2022-09-25T14:54:49.406Z,6.45
2022-09-25T14:57:25.463Z,6.00
2022-09-25T14:59:57.988Z,5.63
2022-09-25T15:02:32.940Z,5.90
2022-09-25T15:05:19.370Z,5.45
2022-09-25T15:07:48.620Z,6.25
2022-09-25T15:10:30.069Z,5.95
2022-09-25T15:13:09.604Z,6.00
2022-09-25T15:15:40.310Z,4.78
2022-09-25T15:18:13.977Z,5.57
2022-09-25T15:20:50.996Z,5.43
2022-09-25T15:23:24.311Z,5.15
2022-09-25T15:25:57.001Z,6.53
2022-09-25T15:28:28.765Z,5.72
2022-09-25T15:30:59.037Z,5.68
2022-09-25T15:33:29.723Z,5.00
2022-09-25T15:36:01.496Z,5.90
2022-09-25T15:38:32.020Z,4.80
2022-09-25T15:41:03.229Z,4.93
2022-09-25T15:43:32.511Z,5.30
2022-09-25T15:46:29.955Z,4.68
2022-09-25T15:49:00.677Z,5.50
2022-09-25T15:51:34.821Z,5.63
2022-09-25T15:54:18.027Z,5.68
2022-09-25T15:56:52.437Z,4.75
2022-09-25T15:59:26.683Z,4.82
2022-09-25T16:02:13.613Z,6.05
2022-09-25T16:04:50.583Z,4.60
2022-09-25T16:07:30.172Z,4.43
2022-09-25T16:10:00.881Z,4.82
2022-09-25T16:12:34.756Z,5.00
2022-09-25T16:15:42.821Z,4.88
2022-09-25T16:18:39.655Z,4.65
2022-09-25T16:21:25.370Z,4.55
2022-09-25T16:23:59.683Z,4.28
2022-09-25T16:26:36.612Z,4.45
2022-09-25T16:29:15.849Z,4.80
2022-09-25T16:31:46.982Z,5.13
2022-09-25T16:34:26.424Z,6.05
2022-09-25T16:36:58.296Z,4.60
2022-09-25T16:39:31.509Z,3.83
2022-09-25T16:42:01.379Z,4.38
2022-09-25T16:44:47.250Z,4.10
2022-09-25T16:47:19.057Z,3.97
2022-09-25T16:49:49.180Z,4.40
2022-09-25T16:52:23.026Z,4.22
2022-09-25T16:54:57.093Z,3.53
2022-09-25T16:57:27.902Z,5.20
2022-09-25T16:59:56.721Z,3.97
2022-09-25T17:02:36.255Z,4.88
2022-09-25T17:05:08.173Z,3.80
2022-09-25T17:07:37.420Z,3.50
2022-09-25T17:10:10.529Z,3.92
2022-09-25T17:12:39.391Z,3.60
2022-09-25T17:15:16.067Z,3.55
2022-09-25T17:17:47.552Z,3.22
2022-09-25T17:20:16.418Z,3.72
2022-09-25T17:22:47.283Z,3.60
2022-09-25T17:25:43.661Z,3.90
2022-09-25T17:28:13.723Z,3.58
2022-09-25T17:30:43.402Z,3.65
2022-09-25T17:33:24.004Z,3.78
2022-09-25T17:35:55.671Z,3.85
2022-09-25T17:38:24.332Z,3.65
2022-09-25T17:41:00.484Z,3.45
2022-09-25T17:43:32.159Z,3.70
2022-09-25T17:46:02.533Z,3.65
2022-09-25T17:48:32.695Z,3.72
2022-09-25T17:51:04.194Z,4.35
2022-09-25T17:53:35.298Z,3.40
2022-09-25T17:56:07.031Z,3.35
2022-09-25T17:58:35.536Z,3.33
2022-09-25T18:01:06.803Z,4.45
2022-09-25T18:03:35.753Z,3.90
2022-09-25T18:06:04.740Z,4.53
2022-09-25T18:08:33.338Z,3.05
2022-09-25T18:11:01.896Z,3.97
2022-09-25T18:13:32.417Z,3.42
2022-09-25T18:16:02.081Z,3.60
2022-09-25T18:18:51.188Z,3.55
2022-09-25T18:21:37.215Z,3.03
2022-09-25T18:24:06.069Z,3.47
2022-09-25T18:26:34.994Z,3.50
2022-09-25T18:29:06.077Z,4.22
2022-09-25T18:31:34.707Z,3.85
2022-09-25T18:34:04.319Z,4.85
2022-09-25T18:36:33.387Z,3.85
2022-09-25T18:39:02.072Z,4.35
2022-09-25T18:41:31.122Z,3.97
2022-09-25T18:43:59.875Z,3.42
2022-09-25T18:46:32.059Z,3.90
2022-09-25T18:49:01.024Z,3.40
2022-09-25T18:51:29.777Z,3.53
2022-09-25T18:53:58.460Z,3.30
2022-09-25T18:56:27.480Z,2.95
2022-09-25T18:58:56.303Z,3.35
2022-09-25T19:01:27.812Z,3.55
2022-09-25T19:03:57.978Z,3.80
2022-09-25T19:06:26.741Z,3.33
2022-09-25T19:08:57.233Z,3.47
2022-09-25T19:11:26.979Z,3.10
2022-09-25T19:13:56.723Z,3.38
2022-09-25T19:16:25.861Z,3.75
2022-09-25T19:18:54.532Z,4.93
2022-09-25T19:21:27.012Z,4.15
2022-09-25T19:23:55.754Z,3.30
2022-09-25T19:26:26.690Z,4.07
2022-09-25T19:28:55.972Z,4.07
2022-09-25T19:31:27.301Z,3.85
2022-09-25T19:33:56.872Z,3.60
2022-09-25T19:36:30.608Z,3.38
2022-09-25T19:39:00.110Z,4.15
2022-09-25T19:41:30.454Z,3.30
2022-09-25T19:44:02.257Z,4.10
2022-09-25T19:46:32.630Z,4.63
2022-09-25T19:49:01.751Z,4.72
2022-09-25T19:51:32.375Z,4.20
2022-09-25T19:54:01.621Z,4.53
2022-09-25T19:56:30.481Z,4.72
2022-09-25T19:58:59.272Z,3.83
2022-09-25T20:01:31.257Z,4.60
2022-09-25T20:04:00.305Z,4.65
2022-09-25T20:06:30.524Z,4.15
2022-09-25T20:09:01.012Z,3.90
2022-09-25T20:11:29.942Z,4.22
2022-09-25T20:13:58.973Z,3.20
2022-09-25T20:16:30.790Z,3.85
2022-09-25T20:19:01.326Z,4.43
2022-09-25T20:21:34.218Z,3.55
2022-09-25T20:24:04.845Z,3.65
2022-09-25T20:26:33.738Z,4.10
2022-09-25T20:29:03.978Z,3.40
2022-09-25T20:31:34.424Z,3.30
2022-09-25T20:34:03.430Z,3.67
2022-09-25T20:36:33.523Z,4.55
2022-09-25T20:39:02.565Z,3.60
2022-09-25T20:41:31.356Z,4.00
2022-09-25T20:43:59.798Z,3.53
2022-09-25T20:46:30.093Z,4.15
2022-09-25T20:49:00.780Z,5.25
2022-09-25T20:51:30.978Z,4.60
2022-09-25T20:54:05.434Z,3.95
2022-09-25T20:56:35.375Z,3.35
2022-09-25T20:59:06.365Z,3.28
2022-09-25T21:01:37.073Z,3.95
2022-09-25T21:04:08.371Z,4.65
2022-09-25T21:06:38.401Z,3.33
2022-09-25T21:09:09.994Z,3.38
2022-09-25T21:11:40.467Z,4.53
2022-09-25T21:14:12.468Z,4.47
2022-09-25T21:16:41.759Z,3.65
2022-09-25T21:19:14.902Z,4.22
2022-09-25T21:21:44.008Z,4.55
2022-09-25T21:24:16.040Z,4.65
2022-09-25T21:26:45.319Z,4.68
2022-09-25T21:29:15.848Z,4.57
2022-09-25T21:31:49.701Z,4.88
2022-09-25T21:34:19.773Z,4.00
2022-09-25T21:36:49.696Z,4.72
2022-09-25T21:39:21.328Z,4.43
2022-09-25T21:41:50.510Z,4.03
2022-09-25T21:44:24.983Z,4.10
2022-09-25T21:46:53.645Z,4.13
2022-09-25T21:49:23.142Z,3.85
2022-09-25T21:51:51.788Z,4.78
2022-09-25T21:54:22.354Z,5.90
2022-09-25T21:56:50.775Z,4.15
2022-09-25T21:59:19.765Z,3.42
2022-09-25T22:01:48.365Z,3.55
2022-09-25T22:04:17.300Z,5.18
2022-09-25T22:06:47.689Z,4.25
2022-09-25T22:09:18.720Z,3.67
2022-09-25T22:11:49.916Z,4.13
2022-09-25T22:14:19.325Z,3.70
2022-09-25T22:16:49.509Z,3.78
2022-09-25T22:19:19.985Z,4.55
2022-09-25T22:21:50.828Z,4.07
2022-09-25T22:24:20.160Z,4.35
2022-09-25T22:26:51.725Z,4.53
2022-09-25T22:29:21.187Z,3.92
2022-09-25T22:31:49.915Z,3.92
2022-09-25T22:34:21.601Z,3.88
2022-09-25T22:36:53.721Z,3.65
2022-09-25T22:39:26.643Z,3.58
2022-09-25T22:41:57.638Z,4.53
2022-09-25T22:44:27.405Z,3.20
2022-09-25T22:46:56.108Z,4.25
2022-09-25T22:49:24.650Z,3.45
2022-09-25T22:51:53.276Z,4.05
2022-09-25T22:54:22.089Z,3.78
2022-09-25T22:56:53.176Z,3.08
2022-09-25T22:59:24.714Z,4.60
2022-09-25T23:01:55.326Z,3.90
2022-09-25T23:04:25.446Z,3.60
2022-09-25T23:06:54.727Z,3.63
2022-09-25T23:09:26.295Z,3.28
2022-09-25T23:11:55.579Z,3.35
2022-09-25T23:14:28.140Z,4.10
2022-09-25T23:16:57.263Z,3.53
2022-09-25T23:19:26.357Z,3.33
2022-09-25T23:21:55.541Z,4.13
2022-09-25T23:24:26.630Z,2.95
2022-09-25T23:26:55.556Z,3.78
2022-09-25T23:29:25.805Z,3.70
2022-09-25T23:31:54.681Z,2.40
2022-09-25T23:34:23.212Z,4.75
2022-09-25T23:36:51.956Z,4.05
2022-09-25T23:39:21.941Z,2.80
2022-09-25T23:41:52.318Z,3.42
2022-09-25T23:44:20.709Z,3.13
2022-09-25T23:46:51.400Z,3.30
2022-09-25T23:49:20.424Z,3.10
2022-09-25T23:51:50.113Z,3.78
2022-09-25T23:54:21.307Z,4.53
2022-09-25T23:56:50.793Z,3.88
2022-09-25T23:59:19.738Z,3.75
